Time;durP1;ratioP1;P1;durP2;ratioP2;P2;SDS_P1;SDS_P2;PMS_P1;PMS_P2;Temp;Humidity;BMP_temperature;BMP_pressure;BME280_temperature;BME280_humidity;BME280_pressure;Samples;Min_cycle;Max_cycle;Signal;HPM_P1;HPM_P2
2024/02/20 00:00:47;;;;;;;5.20;0.93;;;;;;;;;;4898658;29;20056;-87
2024/02/20 00:03:18;;;;;;;2.92;1.00;;;;;;;;;;4896004;29;20494;-87
2024/02/20 00:05:49;;;;;;;4.28;0.93;;;;;;;;;;4914116;29;20499;-87
2024/02/20 00:08:20;;;;;;;2.50;0.85;;;;;;;;;;4913340;29;20079;-87
2024/02/20 00:10:50;;;;;;;2.92;1.13;;;;;;;;;;4915431;29;20055;-87
2024/02/20 00:13:21;;;;;;;3.55;1.00;;;;;;;;;;4898723;29;20419;-87
2024/02/20 00:15:51;;;;;;;3.72;1.10;;;;;;;;;;4902058;29;20049;-87
2024/02/20 00:18:21;;;;;;;5.03;1.50;;;;;;;;;;4879184;29;20060;-87
2024/02/20 00:20:52;;;;;;;4.15;1.58;;;;;;;;;;4895658;29;20052;-87
2024/02/20 00:23:23;;;;;;;5.82;1.17;;;;;;;;;;4895308;29;20052;-88
2024/02/20 00:25:53;;;;;;;5.13;0.95;;;;;;;;;;4895272;29;20056;-87
2024/02/20 00:28:24;;;;;;;3.85;1.63;;;;;;;;;;4895307;29;20040;-88
2024/02/20 00:30:55;;;;;;;7.78;1.80;;;;;;;;;;4879805;29;20077;-86
2024/02/20 00:33:25;;;;;;;9.02;2.55;;;;;;;;;;4894674;29;20053;-88
2024/02/20 00:35:56;;;;;;;7.43;1.85;;;;;;;;;;4897063;29;20071;-87
2024/02/20 00:38:26;;;;;;;5.38;2.22;;;;;;;;;;4899111;29;20121;-87
2024/02/20 00:40:57;;;;;;;4.90;2.25;;;;;;;;;;4879587;29;20057;-86
2024/02/20 00:43:29;;;;;;;8.93;3.13;;;;;;;;;;4897010;29;20052;-87
2024/02/20 00:46:01;;;;;;;8.38;2.10;;;;;;;;;;4899918;29;20048;-87
2024/02/20 00:48:32;;;;;;;7.82;2.80;;;;;;;;;;4901672;29;20064;-87
2024/02/20 00:51:03;;;;;;;6.38;2.33;;;;;;;;;;4898675;29;20053;-88
2024/02/20 00:53:34;;;;;;;9.63;2.22;;;;;;;;;;4883397;29;20052;-87
2024/02/20 00:56:06;;;;;;;7.63;2.90;;;;;;;;;;4886381;29;20056;-87
2024/02/20 00:58:36;;;;;;;7.70;2.60;;;;;;;;;;4900012;29;20151;-87
2024/02/20 01:01:10;;;;;;;6.95;2.47;;;;;;;;;;4899807;29;20514;-87
2024/02/20 01:03:42;;;;;;;6.50;2.90;;;;;;;;;;4899554;29;20570;-88
2024/02/20 01:06:14;;;;;;;6.85;2.15;;;;;;;;;;4898999;29;20507;-87
2024/02/20 01:08:45;;;;;;;7.28;2.40;;;;;;;;;;4899706;29;20411;-88
2024/02/20 01:11:15;;;;;;;5.22;2.38;;;;;;;;;;4898489;29;20523;-87
2024/02/20 01:13:47;;;;;;;;;;;;;;;;;;4898208;29;20510;-87
2024/02/20 01:16:20;;;;;;;5.57;2.20;;;;;;;;;;4899329;29;19924;-87
2024/02/20 01:18:51;;;;;;;5.88;2.15;;;;;;;;;;4882936;29;20052;-87
2024/02/20 01:21:23;;;;;;;6.13;2.72;;;;;;;;;;4882985;29;20056;-88
2024/02/20 01:23:54;;;;;;;10.45;2.60;;;;;;;;;;4899961;29;20041;-86
2024/02/20 01:26:24;;;;;;;5.53;2.42;;;;;;;;;;4897255;29;20052;-87
2024/02/20 01:28:55;;;;;;;5.63;2.50;;;;;;;;;;4897379;29;20523;-89
2024/02/20 01:31:25;;;;;;;6.10;2.80;;;;;;;;;;4884465;29;20083;-89
2024/02/20 01:33:55;;;;;;;6.85;3.25;;;;;;;;;;4879340;29;20519;-88
2024/02/20 01:36:26;;;;;;;6.65;4.10;;;;;;;;;;4880427;29;20080;-85
2024/02/20 01:38:57;;;;;;;8.98;4.45;;;;;;;;;;4879927;29;20053;-85
2024/02/20 01:41:27;;;;;;;6.85;3.53;;;;;;;;;;4879349;29;20151;-87
2024/02/20 01:43:58;;;;;;;7.53;4.28;;;;;;;;;;4864831;29;20057;-86
2024/02/20 01:49:51;;;;;;;7.32;4.10;;;;;;;;;;4881368;29;20056;-85
2024/02/20 01:52:21;;;;;;;7.82;4.53;;;;;;;;;;4880277;29;20105;-87
2024/02/20 01:54:52;;;;;;;8.45;4.65;;;;;;;;;;4864407;29;20060;-86
2024/02/20 01:57:23;;;;;;;7.55;4.22;;;;;;;;;;4881083;29;20049;-87
2024/02/20 01:59:55;;;;;;;6.20;4.10;;;;;;;;;;4879387;29;20485;-85
2024/02/20 02:02:26;;;;;;;7.05;4.00;;;;;;;;;;4881141;29;20052;-87
2024/02/20 02:04:56;;;;;;;9.55;4.47;;;;;;;;;;4881406;29;20041;-86
2024/02/20 02:07:28;;;;;;;7.00;4.20;;;;;;;;;;4879302;29;20504;-86
2024/02/20 02:09:58;;;;;;;6.90;4.30;;;;;;;;;;4880609;29;20048;-87
2024/02/20 02:13:00;;;;;;;10.30;4.50;;;;;;;;;;4886862;29;20056;-86
2024/02/20 02:16:04;;;;;;;6.70;4.13;;;;;;;;;;4799038;29;20054;-85
2024/02/20 02:18:36;;;;;;;6.53;3.92;;;;;;;;;;4807595;29;20469;-88
2024/02/20 02:21:08;;;;;;;7.15;4.35;;;;;;;;;;4797006;29;20070;-88
2024/02/20 02:23:38;;;;;;;7.57;4.30;;;;;;;;;;4803147;29;20054;-87
2024/02/20 02:26:13;;;;;;;9.15;4.63;;;;;;;;;;4799358;29;20058;-86
2024/02/20 02:28:47;;;;;;;10.18;4.25;;;;;;;;;;4789483;29;20054;-86
2024/02/20 02:31:18;;;;;;;;;;;;;;;;;;4789456;29;20059;-86
2024/02/20 02:33:50;;;;;;;8.02;3.65;;;;;;;;;;4789059;29;19932;-87
2024/02/20 02:36:20;;;;;;;8.77;4.13;;;;;;;;;;4804059;29;20063;-87
2024/02/20 02:38:50;;;;;;;6.45;3.92;;;;;;;;;;4788807;29;20055;-88
2024/02/20 02:41:24;;;;;;;7.38;4.10;;;;;;;;;;4822311;29;20062;-87
2024/02/20 02:43:55;;;;;;;9.27;4.18;;;;;;;;;;4804431;29;20050;-87
2024/02/20 02:46:25;;;;;;;7.72;4.32;;;;;;;;;;4821914;29;20379;-87
2024/02/20 02:48:57;;;;;;;11.43;4.32;;;;;;;;;;4823346;29;20399;-87
2024/02/20 02:51:27;;;;;;;8.00;4.65;;;;;;;;;;4806887;29;20453;-87
2024/02/20 02:53:58;;;;;;;11.70;4.32;;;;;;;;;;4807447;29;20058;-87
2024/02/20 02:56:29;;;;;;;11.65;4.45;;;;;;;;;;4807777;29;20058;-87
2024/02/20 02:59:00;;;;;;;9.48;4.82;;;;;;;;;;4807117;29;20177;-87
2024/02/20 03:01:30;;;;;;;7.50;4.53;;;;;;;;;;4806703;29;20073;-87
2024/02/20 03:06:55;;;;;;;9.93;5.13;;;;;;;;;;4870934;29;20061;-86
2024/02/20 03:09:26;;;;;;;13.40;5.80;;;;;;;;;;4896204;29;20057;-86
2024/02/20 03:11:58;;;;;;;9.88;5.50;;;;;;;;;;4897297;29;20492;-86
2024/02/20 03:14:29;;;;;;;11.70;5.65;;;;;;;;;;4897220;29;20048;-86
2024/02/20 03:17:31;;;;;;;10.52;5.45;;;;;;;;;;4896517;29;20056;-86
2024/02/20 03:20:14;;;;;;;12.63;6.15;;;;;;;;;;4896893;29;20052;-85
2024/02/20 03:22:45;;;;;;;;;;;;;;;;;;4882605;29;20058;-87
2024/02/20 03:25:17;;;;;;;11.70;5.55;;;;;;;;;;4897191;29;19924;-85
2024/02/20 03:27:47;;;;;;;15.63;6.15;;;;;;;;;;4896258;29;20052;-85
2024/02/20 03:30:18;;;;;;;12.85;6.43;;;;;;;;;;4898093;29;20056;-86
2024/02/20 03:32:50;;;;;;;14.63;6.50;;;;;;;;;;4898226;29;20055;-86
2024/02/20 03:35:21;;;;;;;18.85;6.63;;;;;;;;;;4896500;29;20515;-85
2024/02/20 03:37:52;;;;;;;14.32;6.50;;;;;;;;;;4898041;29;20060;-86
2024/02/20 03:40:23;;;;;;;13.57;6.40;;;;;;;;;;4896223;29;20064;-85
2024/02/20 03:42:53;;;;;;;12.07;6.18;;;;;;;;;;4896535;29;20047;-85
2024/02/20 03:45:25;;;;;;;11.70;6.55;;;;;;;;;;4895510;29;20427;-85
2024/02/20 03:47:55;;;;;;;12.85;6.38;;;;;;;;;;4896040;29;20484;-84
2024/02/20 03:50:25;;;;;;;16.70;5.97;;;;;;;;;;4895547;29;20385;-85
2024/02/20 03:52:55;;;;;;;12.35;6.50;;;;;;;;;;4897573;29;20040;-85
2024/02/20 03:55:25;;;;;;;13.38;6.28;;;;;;;;;;4896050;29;20412;-86
2024/02/20 03:57:56;;;;;;;13.85;6.65;;;;;;;;;;4895906;29;20063;-86
2024/02/20 04:00:28;;;;;;;17.50;6.60;;;;;;;;;;4881001;29;20080;-85
2024/02/20 04:02:58;;;;;;;13.15;6.45;;;;;;;;;;4898154;29;20396;-85
2024/02/20 04:05:28;;;;;;;15.52;6.32;;;;;;;;;;4898309;29;20473;-84
2024/02/20 04:07:58;;;;;;;16.75;6.07;;;;;;;;;;4895212;29;20045;-84
2024/02/20 04:10:28;;;;;;;18.20;6.80;;;;;;;;;;4899403;29;20468;-84
2024/02/20 04:12:59;;;;;;;13.95;7.20;;;;;;;;;;4901545;29;20056;-85
2024/02/20 04:15:29;;;;;;;14.95;6.95;;;;;;;;;;4901465;29;20058;-85
2024/02/20 04:17:59;;;;;;;11.80;6.03;;;;;;;;;;4900393;29;20052;-85
2024/02/20 04:20:29;;;;;;;20.13;6.90;;;;;;;;;;4901250;29;20053;-85
2024/02/20 04:23:03;;;;;;;15.98;7.00;;;;;;;;;;4901392;29;20053;-84
2024/02/20 04:25:33;;;;;;;14.02;6.03;;;;;;;;;;4899927;29;20057;-85
2024/02/20 04:28:04;;;;;;;14.18;6.70;;;;;;;;;;4900873;29;20048;-86
2024/02/20 04:30:39;;;;;;;13.07;7.20;;;;;;;;;;4902972;29;20044;-87
2024/02/20 04:33:09;;;;;;;17.52;6.97;;;;;;;;;;4902216;29;20079;-86
2024/02/20 04:35:41;;;;;;;17.00;7.03;;;;;;;;;;4889993;29;20052;-85
2024/02/20 04:38:11;;;;;;;20.15;8.70;;;;;;;;;;4901395;29;20044;-86
2024/02/20 04:40:41;;;;;;;17.35;7.22;;;;;;;;;;4899005;29;20044;-85
2024/02/20 04:43:13;;;;;;;21.45;7.82;;;;;;;;;;4884006;29;20056;-86
2024/02/20 04:45:44;;;;;;;18.58;7.82;;;;;;;;;;4884415;29;20060;-86
2024/02/20 04:48:15;;;;;;;21.67;7.72;;;;;;;;;;4901081;29;20055;-86
2024/02/20 04:50:46;;;;;;;15.95;7.28;;;;;;;;;;4884736;29;20056;-86
2024/02/20 04:53:19;;;;;;;16.98;6.47;;;;;;;;;;4901421;29;20051;-86
2024/02/20 04:55:49;;;;;;;13.80;6.43;;;;;;;;;;4900897;29;20048;-85
2024/02/20 04:58:19;;;;;;;16.83;6.55;;;;;;;;;;4900922;29;20048;-87
2024/02/20 05:00:51;;;;;;;12.10;6.00;;;;;;;;;;4900913;29;20073;-86
2024/02/20 05:03:21;;;;;;;16.88;6.03;;;;;;;;;;4884536;29;20060;-86
2024/02/20 05:05:52;;;;;;;13.88;6.10;;;;;;;;;;4884032;29;20053;-86
2024/02/20 05:08:24;;;;;;;15.40;6.55;;;;;;;;;;4884114;29;20061;-85
2024/02/20 05:10:53;;;;;;;16.23;5.93;;;;;;;;;;4900684;29;20484;-86
2024/02/20 05:13:23;;;;;;;11.27;5.20;;;;;;;;;;4900645;29;20060;-85
2024/02/20 05:15:53;;;;;;;12.30;5.75;;;;;;;;;;4900402;29;20048;-85
2024/02/20 05:18:26;;;;;;;13.68;6.47;;;;;;;;;;4900519;29;20471;-85
2024/02/20 05:20:58;;;;;;;12.98;5.47;;;;;;;;;;4883217;29;20407;-85
2024/02/20 05:23:28;;;;;;;13.93;6.25;;;;;;;;;;4882548;29;20063;-84
2024/02/20 05:25:58;;;;;;;12.85;5.90;;;;;;;;;;4883446;29;20053;-86
2024/02/20 05:28:28;;;;;;;11.82;5.55;;;;;;;;;;4900210;29;20048;-85
2024/02/20 05:30:59;;;;;;;15.13;5.88;;;;;;;;;;4883211;29;20052;-83
2024/02/20 05:33:30;;;;;;;11.68;5.18;;;;;;;;;;4883410;29;20064;-83
2024/02/20 05:36:00;;;;;;;12.15;4.88;;;;;;;;;;4900512;29;20045;-82
2024/02/20 05:38:30;;;;;;;9.27;4.82;;;;;;;;;;4899832;29;20059;-82
2024/02/20 05:41:00;;;;;;;14.52;5.10;;;;;;;;;;4899621;29;20049;-82
2024/02/20 05:43:32;;;;;;;10.60;5.10;;;;;;;;;;4868699;29;20075;-82
2024/02/20 05:46:03;;;;;;;12.20;5.15;;;;;;;;;;4899986;29;20044;-82
2024/02/20 05:48:33;;;;;;;17.15;5.57;;;;;;;;;;4899966;29;20053;-83
2024/02/20 05:51:04;;;;;;;14.00;6.28;;;;;;;;;;4900074;29;20056;-83
2024/02/20 05:53:34;;;;;;;15.93;6.90;;;;;;;;;;4899691;29;20053;-82
2024/02/20 05:56:05;;;;;;;13.23;6.00;;;;;;;;;;4898922;29;20049;-85
2024/02/20 05:58:36;;;;;;;11.50;5.63;;;;;;;;;;4867414;29;20057;-84
2024/02/20 06:01:08;;;;;;;12.70;6.22;;;;;;;;;;4883048;29;20052;-84
2024/02/20 06:03:40;;;;;;;19.27;6.80;;;;;;;;;;4899982;29;20059;-84
2024/02/20 06:06:12;;;;;;;23.08;8.27;;;;;;;;;;4900118;29;20055;-82
2024/02/20 06:08:46;;;;;;;22.58;7.78;;;;;;;;;;4899970;29;20055;-82
2024/02/20 06:11:18;;;;;;;31.48;8.77;;;;;;;;;;4883599;29;20063;-84
2024/02/20 06:13:49;;;;;;;48.88;7.63;;;;;;;;;;4883335;29;20052;-85
2024/02/20 06:16:21;;;;;;;65.28;9.75;;;;;;;;;;4899297;29;20060;-83
2024/02/20 06:18:52;;;;;;;50.78;9.63;;;;;;;;;;4899930;29;20045;-84
2024/02/20 06:21:23;;;;;;;;;;;;;;;;;;4899979;29;20052;-83
2024/02/20 06:23:54;;;;;;;67.22;11.63;;;;;;;;;;4899281;29;20402;-86
2024/02/20 06:26:25;;;;;;;42.13;10.57;;;;;;;;;;4899283;29;20063;-84
2024/02/20 06:28:55;;;;;;;59.35;10.57;;;;;;;;;;4899042;29;20056;-85
2024/02/20 06:31:25;;;;;;;91.05;14.35;;;;;;;;;;4899015;29;20048;-84
2024/02/20 06:33:55;;;;;;;47.17;12.13;;;;;;;;;;4897190;29;20057;-84
2024/02/20 06:36:26;;;;;;;90.57;11.20;;;;;;;;;;4897588;29;20049;-85
2024/02/20 06:38:57;;;;;;;87.75;10.07;;;;;;;;;;4882648;29;20056;-86
2024/02/20 06:41:28;;;;;;;;;;;;;;;;;;4899197;29;20048;-85
2024/02/20 06:43:58;;;;;;;35.08;8.38;;;;;;;;;;4882257;29;19923;-85
2024/02/20 06:46:28;;;;;;;29.50;9.15;;;;;;;;;;4882034;29;20048;-84
2024/02/20 06:48:58;;;;;;;28.13;9.35;;;;;;;;;;4866802;29;20063;-85
2024/02/20 06:51:28;;;;;;;30.35;9.57;;;;;;;;;;4866806;29;20052;-84
2024/02/20 06:53:58;;;;;;;30.63;9.52;;;;;;;;;;4898617;29;20048;-83
2024/02/20 06:56:28;;;;;;;36.25;10.13;;;;;;;;;;4898463;29;20051;-84
2024/02/20 06:58:59;;;;;;;35.30;9.45;;;;;;;;;;4897572;29;20056;-86
2024/02/20 07:01:32;;;;;;;33.35;8.98;;;;;;;;;;4898552;29;20411;-84
2024/02/20 07:04:03;;;;;;;38.72;9.57;;;;;;;;;;4882316;29;20049;-84
2024/02/20 07:06:39;;;;;;;40.15;9.75;;;;;;;;;;4883343;29;20055;-84
2024/02/20 07:09:10;;;;;;;37.20;10.27;;;;;;;;;;4882311;29;20514;-84
2024/02/20 07:11:46;;;;;;;49.33;10.57;;;;;;;;;;4898698;29;20368;-85
2024/02/20 07:14:16;;;;;;;56.17;11.27;;;;;;;;;;4896892;29;20056;-84
2024/02/20 07:16:46;;;;;;;55.40;12.02;;;;;;;;;;4866714;29;20055;-84
2024/02/20 07:19:16;;;;;;;56.55;11.82;;;;;;;;;;4898241;29;20052;-83
2024/02/20 07:21:47;;;;;;;48.25;11.10;;;;;;;;;;4896871;29;20049;-86
2024/02/20 07:24:18;;;;;;;38.70;9.77;;;;;;;;;;4896698;29;20060;-83
2024/02/20 07:26:49;;;;;;;47.50;11.50;;;;;;;;;;4900424;29;20037;-84
2024/02/20 07:29:19;;;;;;;54.90;11.98;;;;;;;;;;4899759;29;20044;-84
2024/02/20 07:31:50;;;;;;;47.88;10.63;;;;;;;;;;4887408;29;20060;-84
2024/02/20 07:34:20;;;;;;;48.65;11.77;;;;;;;;;;4899008;29;20056;-84
2024/02/20 07:36:50;;;;;;;44.90;10.25;;;;;;;;;;4916634;29;20056;-84
2024/02/20 07:39:21;;;;;;;42.10;10.77;;;;;;;;;;4916847;29;20044;-83
2024/02/20 07:41:52;;;;;;;40.70;11.77;;;;;;;;;;4883787;29;20056;-83
2024/02/20 07:44:22;;;;;;;44.05;11.02;;;;;;;;;;4900434;29;20060;-84
2024/02/20 07:46:53;;;;;;;43.88;11.20;;;;;;;;;;4884586;29;20056;-86
2024/02/20 07:49:23;;;;;;;37.03;9.43;;;;;;;;;;4916814;29;20059;-84
2024/02/20 07:51:55;;;;;;;38.45;9.85;;;;;;;;;;4917267;29;20055;-83
2024/02/20 07:54:25;;;;;;;36.55;8.55;;;;;;;;;;4899126;29;20411;-83
2024/02/20 07:56:55;;;;;;;28.55;8.23;;;;;;;;;;4900722;29;20063;-83
2024/02/20 07:59:25;;;;;;;26.63;8.38;;;;;;;;;;4916986;29;20502;-83
2024/02/20 08:01:57;;;;;;;24.80;7.53;;;;;;;;;;4899854;29;20056;-83
2024/02/20 08:04:27;;;;;;;17.80;7.05;;;;;;;;;;4900380;29;20383;-83
2024/02/20 08:06:58;;;;;;;19.35;6.78;;;;;;;;;;4916810;29;20052;-83
2024/02/20 08:09:28;;;;;;;23.52;6.93;;;;;;;;;;4900589;29;20056;-83
2024/02/20 08:11:58;;;;;;;25.08;7.10;;;;;;;;;;4916459;29;20063;-83
2024/02/20 08:14:28;;;;;;;21.67;7.45;;;;;;;;;;4916577;29;20048;-84
2024/02/20 08:17:00;;;;;;;20.20;7.57;;;;;;;;;;4899755;29;20452;-83
2024/02/20 08:19:30;;;;;;;24.52;7.43;;;;;;;;;;4900202;29;20051;-84
2024/02/20 08:22:01;;;;;;;22.65;7.82;;;;;;;;;;4899937;29;20060;-83
2024/02/20 08:24:32;;;;;;;20.33;7.18;;;;;;;;;;4899987;29;20411;-83
2024/02/20 08:27:02;;;;;;;22.58;7.20;;;;;;;;;;4915977;29;20055;-83
2024/02/20 08:29:34;;;;;;;21.77;6.97;;;;;;;;;;4916607;29;20468;-83
2024/02/20 08:32:04;;;;;;;15.65;6.97;;;;;;;;;;4907517;29;20411;-84
2024/02/20 08:34:34;;;;;;;15.45;6.28;;;;;;;;;;4897246;29;20044;-83
2024/02/20 08:37:05;;;;;;;18.20;6.25;;;;;;;;;;4897569;29;20056;-83
2024/02/20 08:39:37;;;;;;;15.00;6.95;;;;;;;;;;4897419;29;20049;-83
2024/02/20 08:42:07;;;;;;;16.38;6.72;;;;;;;;;;4897247;29;20492;-84
2024/02/20 08:44:37;;;;;;;16.25;6.30;;;;;;;;;;4895881;29;20472;-84
2024/02/20 08:47:07;;;;;;;17.15;6.70;;;;;;;;;;4879773;29;20059;-84
2024/02/20 08:49:39;;;;;;;16.58;6.35;;;;;;;;;;4880281;29;20061;-84
2024/02/20 08:52:09;;;;;;;15.05;6.25;;;;;;;;;;4880481;29;20408;-84
2024/02/20 08:54:40;;;;;;;20.65;7.82;;;;;;;;;;4897188;29;20049;-84
2024/02/20 08:57:10;;;;;;;25.35;6.88;;;;;;;;;;4900089;29;20057;-85
2024/02/20 08:59:40;;;;;;;14.10;6.15;;;;;;;;;;4900923;29;20044;-84
2024/02/20 09:02:14;;;;;;;14.85;6.28;;;;;;;;;;4883936;29;20084;-84
2024/02/20 09:04:45;;;;;;;13.93;6.53;;;;;;;;;;4884003;29;20057;-83
2024/02/20 09:07:16;;;;;;;16.83;5.88;;;;;;;;;;4899588;29;20432;-83
2024/02/20 09:09:47;;;;;;;14.90;6.10;;;;;;;;;;4883047;29;20079;-85
2024/02/20 09:12:19;;;;;;;14.23;5.70;;;;;;;;;;4899398;29;20057;-85
2024/02/20 09:14:49;;;;;;;16.58;6.82;;;;;;;;;;4900712;29;20048;-84
2024/02/20 09:17:22;;;;;;;20.83;7.88;;;;;;;;;;4884633;29;20044;-86
2024/02/20 09:19:53;;;;;;;27.98;9.02;;;;;;;;;;4899590;29;20531;-84
2024/02/20 09:22:26;;;;;;;26.20;9.75;;;;;;;;;;4883671;29;20399;-84
2024/02/20 09:24:56;;;;;;;25.08;8.77;;;;;;;;;;4899089;29;20052;-84
2024/02/20 09:27:27;;;;;;;21.73;8.23;;;;;;;;;;4900028;29;20068;-85
2024/02/20 09:29:57;;;;;;;26.52;8.68;;;;;;;;;;4899484;29;20385;-84
2024/02/20 09:32:27;;;;;;;23.17;8.13;;;;;;;;;;4900038;29;20392;-85
2024/02/20 09:34:57;;;;;;;26.67;8.88;;;;;;;;;;4884121;29;20048;-85
2024/02/20 09:37:29;;;;;;;26.92;9.55;;;;;;;;;;4900129;29;20107;-84
2024/02/20 09:39:59;;;;;;;33.85;10.25;;;;;;;;;;4898485;29;20060;-84
2024/02/20 09:42:30;;;;;;;33.92;10.25;;;;;;;;;;4899357;29;20068;-86
2024/02/20 09:45:02;;;;;;;;;;;;;;;;;;4899528;29;20056;-85
2024/02/20 09:47:35;;;;;;;25.55;9.32;;;;;;;;;;4883126;29;20276;-85
2024/02/20 09:50:08;;;;;;;27.60;10.48;;;;;;;;;;4898421;29;20060;-84
2024/02/20 09:52:41;;;;;;;30.52;9.55;;;;;;;;;;4868183;29;20048;-83
2024/02/20 09:55:14;;;;;;;29.02;10.18;;;;;;;;;;4883398;29;20052;-84
2024/02/20 09:57:47;;;;;;;27.08;10.18;;;;;;;;;;4898066;29;20048;-85
2024/02/20 10:00:19;;;;;;;19.20;8.60;;;;;;;;;;4897830;29;20052;-83
2024/02/20 10:02:52;;;;;;;23.45;9.50;;;;;;;;;;4882797;29;20060;-84
2024/02/20 10:05:24;;;;;;;14.55;6.75;;;;;;;;;;4899690;29;20044;-84
2024/02/20 10:08:00;;;;;;;16.08;7.18;;;;;;;;;;4898560;29;20041;-83
2024/02/20 10:10:33;;;;;;;14.27;6.35;;;;;;;;;;4883586;29;20045;-84
2024/02/20 10:13:05;;;;;;;;;;;;;;;;;;4899343;29;20052;-85
2024/02/20 10:15:36;;;;;;;11.65;5.85;;;;;;;;;;4899440;29;19934;-84
2024/02/20 10:18:07;;;;;;;12.15;6.20;;;;;;;;;;4882683;29;20060;-83
2024/02/20 10:20:38;;;;;;;16.27;6.70;;;;;;;;;;4900075;29;20488;-83
2024/02/20 10:23:12;;;;;;;16.60;7.35;;;;;;;;;;4899581;29;20041;-83
2024/02/20 10:25:43;;;;;;;18.55;7.50;;;;;;;;;;4897988;29;20059;-83
2024/02/20 10:28:14;;;;;;;23.60;10.15;;;;;;;;;;4892848;29;20048;-82
2024/02/20 10:30:46;;;;;;;20.83;8.40;;;;;;;;;;4900501;29;20531;-83
2024/02/20 10:33:17;;;;;;;21.92;9.00;;;;;;;;;;4898443;29;20088;-85
2024/02/20 10:35:49;;;;;;;27.65;11.57;;;;;;;;;;4900179;29;20048;-84
2024/02/20 10:38:19;;;;;;;19.60;8.60;;;;;;;;;;4909192;29;20044;-83
2024/02/20 10:40:49;;;;;;;22.90;8.65;;;;;;;;;;4898101;29;20057;-84
2024/02/20 10:43:20;;;;;;;21.88;9.50;;;;;;;;;;4897408;29;20057;-83
2024/02/20 10:45:52;;;;;;;20.83;8.88;;;;;;;;;;4896736;29;20057;-83
2024/02/20 10:48:30;;;;;;;18.45;8.35;;;;;;;;;;4896932;29;20500;-83
2024/02/20 10:51:02;;;;;;;20.75;7.90;;;;;;;;;;4898236;29;20099;-83
2024/02/20 10:53:57;;;;;;;23.10;8.23;;;;;;;;;;4894833;29;20174;-83
2024/02/20 10:56:38;;;;;;;17.90;7.63;;;;;;;;;;4899390;29;20547;-83
2024/02/20 10:59:09;;;;;;;18.65;8.00;;;;;;;;;;4900239;29;20044;-83
2024/02/20 11:01:40;;;;;;;13.63;6.90;;;;;;;;;;4909563;29;20048;-83
2024/02/20 11:04:11;;;;;;;18.25;6.65;;;;;;;;;;4901966;29;20049;-84
2024/02/20 11:06:48;;;;;;;14.32;6.93;;;;;;;;;;4891951;29;20057;-84
2024/02/20 11:09:19;;;;;;;18.05;6.80;;;;;;;;;;4878549;29;20052;-83
2024/02/20 11:11:49;;;;;;;12.80;5.90;;;;;;;;;;4876575;29;20060;-85
2024/02/20 11:14:26;;;;;;;15.38;5.95;;;;;;;;;;4888733;29;20052;-85
2024/02/20 11:16:58;;;;;;;12.13;5.93;;;;;;;;;;4895384;29;20508;-86
2024/02/20 11:19:44;;;;;;;10.68;5.00;;;;;;;;;;4904614;29;20048;-87
2024/02/20 11:22:14;;;;;;;14.48;5.40;;;;;;;;;;4914343;29;20044;-87
2024/02/20 11:24:44;;;;;;;12.00;5.38;;;;;;;;;;4915088;29;20051;-84
2024/02/20 11:27:28;;;;;;;13.75;5.18;;;;;;;;;;4905662;29;20153;-83
2024/02/20 11:30:08;;;;;;;11.88;5.68;;;;;;;;;;4911282;29;20059;-85
2024/02/20 11:32:38;;;;;;;12.55;5.97;;;;;;;;;;4897487;29;20056;-83
2024/02/20 11:35:29;;;;;;;10.70;5.63;;;;;;;;;;4909078;29;20057;-85
2024/02/20 11:38:02;;;;;;;15.63;6.15;;;;;;;;;;4897382;29;20048;-85
2024/02/20 11:40:37;;;;;;;12.75;5.82;;;;;;;;;;4896204;29;20052;-84
2024/02/20 11:43:08;;;;;;;10.07;5.70;;;;;;;;;;4897204;29;20044;-84
2024/02/20 11:45:39;;;;;;;7.65;5.10;;;;;;;;;;4895983;29;20052;-85
2024/02/20 11:48:12;;;;;;;10.00;4.70;;;;;;;;;;4897054;29;20388;-85
2024/02/20 11:50:44;;;;;;;11.52;4.88;;;;;;;;;;4879045;29;20049;-85
2024/02/20 11:53:18;;;;;;;11.50;4.38;;;;;;;;;;4878091;29;20504;-86
2024/02/20 11:55:53;;;;;;;6.82;3.95;;;;;;;;;;4893469;29;20064;-85
2024/02/20 11:58:24;;;;;;;5.25;3.08;;;;;;;;;;4895815;29;20054;-85
2024/02/20 12:01:02;;;;;;;5.38;2.97;;;;;;;;;;4896093;29;20069;-85
2024/02/20 12:03:35;;;;;;;7.03;3.05;;;;;;;;;;4897202;29;20508;-86
2024/02/20 12:06:08;;;;;;;6.30;3.10;;;;;;;;;;4894283;29;20053;-86
2024/02/20 12:09:15;;;;;;;9.27;3.67;;;;;;;;;;4898156;29;20509;-86
2024/02/20 12:11:55;;;;;;;9.63;3.95;;;;;;;;;;4892656;29;20049;-86
2024/02/20 12:14:25;;;;;;;6.03;3.47;;;;;;;;;;4896193;29;20098;-86
2024/02/20 12:17:02;;;;;;;7.72;3.97;;;;;;;;;;4895839;29;20177;-87
2024/02/20 12:19:33;;;;;;;8.57;4.75;;;;;;;;;;4897913;29;20044;-86
2024/02/20 12:22:04;;;;;;;6.63;3.63;;;;;;;;;;4901650;29;20045;-86
2024/02/20 12:24:34;;;;;;;9.45;4.00;;;;;;;;;;4893157;29;20064;-86
2024/02/20 12:27:04;;;;;;;6.38;3.67;;;;;;;;;;4894817;29;20056;-83
2024/02/20 12:29:35;;;;;;;8.32;3.60;;;;;;;;;;4911077;29;20053;-87
2024/02/20 12:32:08;;;;;;;7.25;3.75;;;;;;;;;;4897906;29;20055;-85
2024/02/20 12:34:40;;;;;;;7.82;3.85;;;;;;;;;;4906027;29;20056;-85
2024/02/20 12:37:22;;;;;;;5.43;3.45;;;;;;;;;;4887567;29;20060;-86
2024/02/20 12:39:52;;;;;;;4.45;2.95;;;;;;;;;;4898965;29;20534;-87
2024/02/20 12:42:23;;;;;;;6.97;3.00;;;;;;;;;;4896383;29;20056;-85
2024/02/20 12:44:53;;;;;;;6.38;2.88;;;;;;;;;;4900060;29;20511;-84
2024/02/20 12:47:25;;;;;;;3.85;2.45;;;;;;;;;;4900036;29;20055;-85
2024/02/20 12:49:55;;;;;;;4.15;2.60;;;;;;;;;;4894989;29;20087;-86
2024/02/20 12:52:25;;;;;;;6.13;3.15;;;;;;;;;;4914428;29;20142;-86
2024/02/20 12:54:56;;;;;;;6.78;2.55;;;;;;;;;;4915173;29;20514;-87
2024/02/20 12:57:26;;;;;;;5.05;2.72;;;;;;;;;;4916503;29;20079;-86
2024/02/20 12:59:57;;;;;;;7.03;2.85;;;;;;;;;;4918232;29;20059;-86
2024/02/20 13:02:27;;;;;;;8.80;2.90;;;;;;;;;;4916388;29;20048;-83
2024/02/20 13:04:56;;;;;;;6.68;3.40;;;;;;;;;;4900423;29;20064;-86
2024/02/20 13:07:27;;;;;;;9.65;2.78;;;;;;;;;;4883383;29;20053;-87
2024/02/20 13:09:58;;;;;;;6.18;2.58;;;;;;;;;;4899835;29;20053;-84
2024/02/20 13:12:29;;;;;;;6.47;3.10;;;;;;;;;;4895851;29;20056;-86
2024/02/20 13:15:00;;;;;;;;;;;;;;;;;;4897830;29;20420;-86
2024/02/20 13:17:39;;;;;;;8.98;4.18;;;;;;;;;;4899050;29;19931;-86
2024/02/20 13:20:10;;;;;;;8.48;3.53;;;;;;;;;;4897735;29;20485;-88
2024/02/20 13:22:42;;;;;;;6.45;3.65;;;;;;;;;;4902404;29;20051;-87
2024/02/20 13:25:13;;;;;;;13.40;3.45;;;;;;;;;;4915356;29;20056;-85
2024/02/20 13:27:44;;;;;;;6.63;3.58;;;;;;;;;;4894547;29;20049;-84
2024/02/20 13:30:38;;;;;;;5.78;2.85;;;;;;;;;;4894841;29;20061;-85
2024/02/20 13:33:09;;;;;;;7.53;4.30;;;;;;;;;;4918103;29;20040;-85
2024/02/20 13:35:39;;;;;;;6.00;3.60;;;;;;;;;;4916313;29;20052;-88
2024/02/20 13:38:13;;;;;;;9.57;3.45;;;;;;;;;;4900098;29;20052;-88
2024/02/20 13:40:45;;;;;;;8.60;3.55;;;;;;;;;;4892555;29;20063;-85
2024/02/20 13:43:15;;;;;;;8.20;3.47;;;;;;;;;;4896491;29;20061;-84
2024/02/20 13:46:10;;;;;;;6.82;3.15;;;;;;;;;;4897139;29;20496;-84
2024/02/20 13:48:41;;;;;;;6.20;3.65;;;;;;;;;;4911367;29;20055;-84
2024/02/20 13:51:14;;;;;;;6.53;3.47;;;;;;;;;;4915120;29;20056;-84
2024/02/20 13:53:47;;;;;;;7.50;3.72;;;;;;;;;;4903018;29;20036;-85
2024/02/20 13:56:20;;;;;;;6.43;3.13;;;;;;;;;;4898054;29;20508;-84
2024/02/20 13:59:06;;;;;;;6.57;3.40;;;;;;;;;;4914831;29;20483;-83
2024/02/20 14:01:36;;;;;;;6.70;3.30;;;;;;;;;;4883582;29;20049;-82
2024/02/20 14:04:07;;;;;;;6.43;3.25;;;;;;;;;;4898754;29;20060;-83
2024/02/20 14:06:37;;;;;;;5.43;3.03;;;;;;;;;;4906383;29;20048;-86
2024/02/20 14:09:07;;;;;;;5.78;2.95;;;;;;;;;;4901054;29;20044;-85
2024/02/20 14:11:43;;;;;;;5.78;2.50;;;;;;;;;;4899114;29;20044;-85
2024/02/20 14:14:14;;;;;;;6.75;3.05;;;;;;;;;;4897523;29;20071;-85
2024/02/20 14:16:44;;;;;;;4.72;2.45;;;;;;;;;;4883993;29;20059;-83
2024/02/20 14:19:14;;;;;;;10.40;2.30;;;;;;;;;;4915475;29;20499;-85
2024/02/20 14:21:44;;;;;;;4.65;2.20;;;;;;;;;;4901038;29;20427;-83
2024/02/20 14:24:14;;;;;;;5.10;2.35;;;;;;;;;;4915961;29;20048;-83
2024/02/20 14:26:45;;;;;;;4.70;2.28;;;;;;;;;;4913418;29;20048;-86
2024/02/20 14:29:15;;;;;;;5.70;2.55;;;;;;;;;;4916541;29;20056;-84
2024/02/20 14:31:45;;;;;;;6.22;2.70;;;;;;;;;;4912484;29;20052;-86
2024/02/20 14:34:15;;;;;;;7.18;2.35;;;;;;;;;;4907991;29;20059;-83
2024/02/20 14:36:46;;;;;;;4.70;2.35;;;;;;;;;;4861606;29;20055;-83
2024/02/20 14:39:17;;;;;;;6.15;2.08;;;;;;;;;;4879671;29;20061;-86
2024/02/20 14:41:50;;;;;;;6.40;2.55;;;;;;;;;;4878810;29;20053;-84
2024/02/20 14:44:21;;;;;;;9.07;2.58;;;;;;;;;;4879546;29;20049;-82
2024/02/20 14:46:52;;;;;;;5.28;2.30;;;;;;;;;;4879674;29;20504;-83
2024/02/20 14:49:24;;;;;;;7.78;2.25;;;;;;;;;;4878514;29;20075;-84
2024/02/20 14:51:54;;;;;;;4.97;2.30;;;;;;;;;;4878149;29;20049;-85
2024/02/20 14:54:25;;;;;;;5.53;2.60;;;;;;;;;;4879540;29;20048;-85
2024/02/20 14:56:56;;;;;;;9.32;2.60;;;;;;;;;;4877352;29;20057;-85
2024/02/20 14:59:28;;;;;;;6.35;2.60;;;;;;;;;;4882215;29;21343;-85
2024/02/20 15:02:01;;;;;;;6.05;2.92;;;;;;;;;;4885494;29;20057;-85
2024/02/20 15:04:31;;;;;;;5.15;3.47;;;;;;;;;;4881767;29;20408;-86
2024/02/20 15:07:02;;;;;;;5.80;2.92;;;;;;;;;;4887472;29;20056;-84
2024/02/20 15:09:34;;;;;;;6.32;2.75;;;;;;;;;;4884857;29;20060;-85